Caransebes, Romania
Current Conditions -  °F | °C
As of 7:00 AM on Sunday 25 Jan 2015 (Local Time) from LYVR Reporting Station
Haze Haze  
Wind Chill: 33°   Ceiling: 300
Heat Index: 37°   Visibility: 3mi
Dew Point: 36°   Wind: 6mph
Humidity: 93%   Direction: 280°W
Pressure: 29.91"   Gusts: NA
Location:  45.41°N, 22.22°E
Report Text: LYVR 250400Z 28005KT 5000 BR BKN003 03/02 Q1013 NOSIG
Loading
Personal Weather Stations






























Interactive Weather Map New forecast layout! Learn more

10-Day Weather Forecast

Advertisements
Track Severe Weather on mobile